createdAt,value
2022-11-22T00:00:44.192Z,6.59
2022-11-22T00:03:01.147Z,6.60
2022-11-22T00:05:18.444Z,6.61
2022-11-22T00:07:36.557Z,6.61
2022-11-22T00:09:53.978Z,6.63
2022-11-22T00:12:11.030Z,6.61
2022-11-22T00:14:28.274Z,6.60
2022-11-22T00:16:45.596Z,6.59
2022-11-22T00:19:02.616Z,6.61
2022-11-22T00:21:19.695Z,6.62
2022-11-22T00:23:36.746Z,6.61
2022-11-22T00:25:54.054Z,6.61
2022-11-22T00:28:11.048Z,6.61
2022-11-22T00:30:28.165Z,6.62
2022-11-22T00:32:45.190Z,6.63
2022-11-22T00:35:02.209Z,6.62
2022-11-22T00:37:20.192Z,6.60
2022-11-22T00:39:37.213Z,6.60
2022-11-22T00:41:54.540Z,6.62
2022-11-22T00:44:11.530Z,6.63
2022-11-22T00:46:28.778Z,6.64
2022-11-22T00:48:45.722Z,6.62
2022-11-22T00:51:02.772Z,6.60
2022-11-22T00:53:19.691Z,6.56
2022-11-22T00:55:36.965Z,6.49
2022-11-22T00:57:53.943Z,6.46
2022-11-22T01:00:10.987Z,6.39
2022-11-22T01:02:28.020Z,6.30
2022-11-22T01:04:45.049Z,6.26
2022-11-22T01:07:03.360Z,6.21
2022-11-22T01:09:20.417Z,6.17
2022-11-22T01:11:38.291Z,6.14
2022-11-22T01:13:55.223Z,6.15
2022-11-22T01:16:12.527Z,6.15
2022-11-22T01:18:29.775Z,6.14
2022-11-22T01:20:47.104Z,6.15
2022-11-22T01:23:04.329Z,6.15
2022-11-22T01:25:21.196Z,6.17
2022-11-22T01:27:38.201Z,6.16
2022-11-22T01:29:56.138Z,6.14
2022-11-22T01:32:13.023Z,6.09
2022-11-22T01:34:30.011Z,6.10
2022-11-22T01:36:47.295Z,6.10
2022-11-22T01:39:04.316Z,6.03
2022-11-22T01:41:21.279Z,5.98
2022-11-22T01:43:38.355Z,5.97
2022-11-22T01:45:55.391Z,5.95
2022-11-22T01:48:12.322Z,5.93
2022-11-22T01:50:29.662Z,5.92
2022-11-22T01:52:46.666Z,5.90
2022-11-22T01:55:04.931Z,5.88
2022-11-22T01:57:22.174Z,5.85
2022-11-22T01:59:39.401Z,5.88
2022-11-22T02:01:56.343Z,5.83
2022-11-22T02:04:13.683Z,5.77
2022-11-22T02:06:30.709Z,5.70
2022-11-22T02:08:47.671Z,5.65
2022-11-22T02:11:04.602Z,5.57
2022-11-22T02:13:21.448Z,5.53
2022-11-22T02:15:39.465Z,5.46
2022-11-22T02:17:57.421Z,5.43
2022-11-22T02:20:14.322Z,5.39
2022-11-22T02:22:31.557Z,5.38
2022-11-22T02:24:48.593Z,5.39
2022-11-22T02:27:05.854Z,5.45
2022-11-22T02:29:23.191Z,5.42
2022-11-22T02:31:41.201Z,5.42
2022-11-22T02:34:01.565Z,5.42
2022-11-22T02:36:18.878Z,5.39
2022-11-22T02:38:35.883Z,5.39
2022-11-22T02:40:53.157Z,5.41
2022-11-22T02:43:10.201Z,5.41
2022-11-22T02:45:27.217Z,5.39
2022-11-22T02:47:45.274Z,5.39
2022-11-22T02:50:02.317Z,5.41
2022-11-22T02:52:19.527Z,5.42
2022-11-22T02:54:36.797Z,5.43
2022-11-22T02:56:53.698Z,5.44
2022-11-22T02:59:10.972Z,5.45
2022-11-22T03:01:29.461Z,5.41
2022-11-22T03:03:47.521Z,5.41
2022-11-22T03:06:04.563Z,5.42
2022-11-22T03:08:22.617Z,5.37
2022-11-22T03:10:39.831Z,5.35
2022-11-22T03:12:56.808Z,5.30
2022-11-22T03:15:14.198Z,5.26
2022-11-22T03:17:31.170Z,5.23
2022-11-22T03:19:48.183Z,5.22
2022-11-22T03:22:06.422Z,5.23
2022-11-22T03:24:23.239Z,5.23
2022-11-22T03:26:40.170Z,5.21
2022-11-22T03:28:57.209Z,5.20
2022-11-22T03:31:14.474Z,5.19
2022-11-22T03:33:31.678Z,5.17
2022-11-22T03:35:48.618Z,5.13
2022-11-22T03:38:05.884Z,5.11
2022-11-22T03:40:22.954Z,5.08
2022-11-22T03:42:39.955Z,5.03
2022-11-22T03:44:56.763Z,4.98
2022-11-22T03:47:13.702Z,4.93
2022-11-22T03:49:30.877Z,4.87
2022-11-22T03:51:47.972Z,4.81
2022-11-22T03:54:05.009Z,4.84
2022-11-22T03:56:21.865Z,4.78
2022-11-22T03:58:38.884Z,4.71
2022-11-22T04:00:55.896Z,4.66
2022-11-22T04:03:12.972Z,4.59
2022-11-22T04:05:30.331Z,4.58
2022-11-22T04:07:47.688Z,4.55
2022-11-22T04:10:04.966Z,4.52
2022-11-22T04:12:22.247Z,4.51
2022-11-22T04:14:39.175Z,4.49
2022-11-22T04:16:56.480Z,4.49
2022-11-22T04:19:13.444Z,4.44
2022-11-22T04:21:30.687Z,4.38
2022-11-22T04:23:47.683Z,4.34
2022-11-22T04:26:04.719Z,4.27
2022-11-22T04:28:24.560Z,4.22
2022-11-22T04:30:49.301Z,4.20
2022-11-22T04:33:06.575Z,4.19
2022-11-22T04:35:23.616Z,4.15
2022-11-22T04:37:40.947Z,4.11
2022-11-22T04:39:57.947Z,4.10
2022-11-22T04:42:15.232Z,4.09
2022-11-22T04:44:32.252Z,4.08
2022-11-22T04:46:49.954Z,4.09
2022-11-22T04:49:07.204Z,4.13
2022-11-22T04:51:24.297Z,4.17
2022-11-22T04:53:41.562Z,4.20
2022-11-22T04:55:58.821Z,4.23
2022-11-22T04:58:15.877Z,4.24
2022-11-22T05:00:32.899Z,4.30
2022-11-22T05:02:50.167Z,4.39
2022-11-22T05:05:07.257Z,4.43
2022-11-22T05:07:24.601Z,4.42
2022-11-22T05:09:41.813Z,4.37
2022-11-22T05:11:59.102Z,4.42
2022-11-22T05:14:16.385Z,4.46
2022-11-22T05:16:33.376Z,4.42
2022-11-22T05:18:50.585Z,4.47
2022-11-22T05:21:07.735Z,4.43
2022-11-22T05:23:24.726Z,4.43
2022-11-22T05:25:41.661Z,4.40
2022-11-22T05:27:58.628Z,4.41
2022-11-22T05:30:16.641Z,4.45
2022-11-22T05:32:33.566Z,4.42
2022-11-22T05:34:51.631Z,4.46
2022-11-22T05:37:08.943Z,4.40
2022-11-22T05:39:26.009Z,4.41
2022-11-22T05:41:43.058Z,4.40
2022-11-22T05:44:00.278Z,4.37
2022-11-22T05:46:22.502Z,4.44
2022-11-22T05:48:41.034Z,4.50
2022-11-22T05:50:59.036Z,4.53
2022-11-22T05:53:17.004Z,4.62
2022-11-22T05:55:33.979Z,4.62
2022-11-22T05:57:51.234Z,4.72
2022-11-22T06:00:08.278Z,4.77
2022-11-22T06:02:26.215Z,4.84
2022-11-22T06:04:43.323Z,4.92
2022-11-22T06:07:04.371Z,4.99
2022-11-22T06:09:25.566Z,5.06
2022-11-22T06:11:42.503Z,5.18
2022-11-22T06:13:59.577Z,5.22
2022-11-22T06:16:16.573Z,5.25
2022-11-22T06:18:33.644Z,5.30
2022-11-22T06:20:50.920Z,5.26
2022-11-22T06:23:08.320Z,5.23
2022-11-22T06:25:25.214Z,5.18
2022-11-22T06:27:42.215Z,5.10
2022-11-22T06:29:59.278Z,5.07
2022-11-22T06:32:17.225Z,5.06
2022-11-22T06:34:34.287Z,5.06
2022-11-22T06:36:52.105Z,5.03
2022-11-22T06:39:09.424Z,5.11
2022-11-22T06:41:26.471Z,5.11
2022-11-22T06:43:48.274Z,5.12
2022-11-22T06:46:06.201Z,5.15
2022-11-22T06:48:23.227Z,5.17
2022-11-22T06:50:40.218Z,5.19
2022-11-22T06:52:58.322Z,5.22
2022-11-22T06:55:42.503Z,5.24
2022-11-22T06:57:52.445Z,5.26
2022-11-22T07:00:10.793Z,5.27
2022-11-22T07:02:29.330Z,5.30
2022-11-22T07:05:09.772Z,5.30
2022-11-22T07:07:24.448Z,5.31
2022-11-22T07:09:42.514Z,5.31
2022-11-22T07:11:59.813Z,5.31
2022-11-22T07:14:16.827Z,5.30
2022-11-22T07:16:34.036Z,5.28
2022-11-22T07:18:50.976Z,5.24
2022-11-22T07:21:12.476Z,5.24
2022-11-22T07:23:30.348Z,5.25
2022-11-22T07:25:47.366Z,5.24
2022-11-22T07:28:04.492Z,5.24
2022-11-22T07:30:21.495Z,5.21
2022-11-22T07:32:38.861Z,5.22
2022-11-22T07:34:55.785Z,5.18
2022-11-22T07:37:13.726Z,5.15
2022-11-22T07:39:31.020Z,5.13
2022-11-22T07:41:48.208Z,5.11
2022-11-22T07:44:05.631Z,5.05
2022-11-22T07:46:22.669Z,5.05
2022-11-22T07:48:39.715Z,5.03
2022-11-22T07:50:57.687Z,5.01
2022-11-22T07:53:15.261Z,4.96
2022-11-22T07:55:32.210Z,4.92
2022-11-22T07:57:49.811Z,4.89
2022-11-22T08:00:07.044Z,4.88
2022-11-22T08:02:24.198Z,4.88
2022-11-22T08:04:42.641Z,4.90
2022-11-22T08:06:59.680Z,4.90
2022-11-22T08:09:18.335Z,4.93
2022-11-22T08:11:35.371Z,4.96
2022-11-22T08:13:52.675Z,5.05
2022-11-22T08:16:09.997Z,5.09
2022-11-22T08:18:27.364Z,5.13
2022-11-22T08:20:44.717Z,5.18
2022-11-22T08:23:01.732Z,5.22
2022-11-22T08:25:19.175Z,5.26
2022-11-22T08:27:36.417Z,5.35
2022-11-22T08:29:54.726Z,5.42
2022-11-22T08:32:11.770Z,5.50
2022-11-22T08:34:28.832Z,5.59
2022-11-22T08:36:46.077Z,5.64
2022-11-22T08:39:03.384Z,5.66
2022-11-22T08:41:22.335Z,5.72
2022-11-22T08:43:39.613Z,5.72
2022-11-22T08:45:57.987Z,5.76
2022-11-22T08:48:21.690Z,5.81
2022-11-22T08:50:39.451Z,5.85
2022-11-22T08:52:56.953Z,5.87
2022-11-22T08:55:14.943Z,5.90
2022-11-22T08:57:32.249Z,5.92
2022-11-22T08:59:49.221Z,5.95
2022-11-22T09:02:06.341Z,5.96
2022-11-22T09:04:23.452Z,6.00
2022-11-22T09:11:55.627Z,6.14
2022-11-22T09:14:12.966Z,6.20
2022-11-22T09:16:30.938Z,6.20
2022-11-22T09:18:48.256Z,6.22
2022-11-22T09:21:05.286Z,6.26
2022-11-22T09:23:22.491Z,6.24
2022-11-22T09:25:39.714Z,6.26
2022-11-22T09:27:56.626Z,6.22
2022-11-22T09:30:13.903Z,6.22
2022-11-22T09:32:33.871Z,6.21
2022-11-22T09:34:52.089Z,6.22
2022-11-22T09:37:10.057Z,6.23
2022-11-22T09:39:27.476Z,6.27
2022-11-22T09:41:44.809Z,6.32
2022-11-22T09:44:01.729Z,6.40
2022-11-22T09:46:18.643Z,6.45
2022-11-22T09:48:36.726Z,6.52
2022-11-22T09:50:54.086Z,6.52
2022-11-22T09:53:12.163Z,6.61
2022-11-22T09:55:29.196Z,6.63
2022-11-22T09:57:46.527Z,6.72
2022-11-22T10:00:03.837Z,6.81
2022-11-22T10:02:21.160Z,6.86
2022-11-22T10:04:38.150Z,6.88
2022-11-22T10:06:55.205Z,6.94
2022-11-22T10:09:12.230Z,6.95
2022-11-22T10:11:33.499Z,7.01
2022-11-22T10:13:58.388Z,6.99
2022-11-22T10:16:16.330Z,7.06
2022-11-22T10:18:33.600Z,7.06
2022-11-22T10:20:53.043Z,7.09
2022-11-22T10:23:10.095Z,7.10
2022-11-22T10:25:28.373Z,7.16
2022-11-22T10:27:45.395Z,7.20
2022-11-22T10:30:02.731Z,7.23
2022-11-22T10:32:20.023Z,7.25
2022-11-22T10:34:37.031Z,7.32
2022-11-22T10:36:54.130Z,7.33
2022-11-22T10:39:11.122Z,7.35
2022-11-22T10:41:28.158Z,7.35
2022-11-22T10:43:45.214Z,7.37
2022-11-22T10:46:02.514Z,7.39
2022-11-22T10:48:19.858Z,7.32
2022-11-22T10:50:37.177Z,7.32
2022-11-22T10:52:55.215Z,7.40
2022-11-22T10:55:12.407Z,7.36
2022-11-22T10:57:29.500Z,7.35
2022-11-22T10:59:46.432Z,7.32
2022-11-22T11:02:04.712Z,7.33
2022-11-22T11:04:21.691Z,7.37
2022-11-22T11:07:04.554Z,7.43
2022-11-22T11:11:53.987Z,7.53
2022-11-22T11:14:11.974Z,7.57
2022-11-22T11:16:29.050Z,7.48
2022-11-22T11:18:46.344Z,7.46
2022-11-22T11:21:03.542Z,7.47
2022-11-22T11:23:20.489Z,7.50
2022-11-22T11:25:39.852Z,7.44
2022-11-22T11:27:57.868Z,7.43
2022-11-22T11:30:15.555Z,7.49
2022-11-22T11:32:33.063Z,7.59
2022-11-22T11:34:51.570Z,7.53
2022-11-22T11:37:08.558Z,7.53
2022-11-22T11:39:27.111Z,7.57
2022-11-22T11:41:44.416Z,7.55
2022-11-22T11:44:01.466Z,7.64
2022-11-22T11:46:18.414Z,7.65
2022-11-22T11:48:35.481Z,7.66
2022-11-22T11:50:52.754Z,7.66
2022-11-22T11:53:11.100Z,7.69
2022-11-22T11:55:28.380Z,7.70
2022-11-22T11:57:46.002Z,7.78
2022-11-22T12:00:03.316Z,7.80
2022-11-22T12:02:20.644Z,7.82
2022-11-22T12:04:37.874Z,7.77
2022-11-22T12:06:58.723Z,7.73
2022-11-22T12:09:18.792Z,7.69
2022-11-22T12:11:35.800Z,7.77
2022-11-22T12:16:30.084Z,7.63
2022-11-22T12:18:47.388Z,7.59
2022-11-22T12:21:04.292Z,7.60
2022-11-22T12:23:21.487Z,7.59
2022-11-22T12:25:38.660Z,7.58
2022-11-22T12:27:56.009Z,7.61
2022-11-22T12:30:13.094Z,7.60
2022-11-22T12:32:30.392Z,7.59
2022-11-22T12:34:48.611Z,7.62
2022-11-22T12:37:05.611Z,7.59
2022-11-22T12:39:22.680Z,7.61
2022-11-22T12:41:39.871Z,7.70
2022-11-22T12:43:56.922Z,7.75
2022-11-22T12:46:13.962Z,7.71
2022-11-22T12:48:31.002Z,7.76
2022-11-22T12:50:49.291Z,7.84
2022-11-22T12:53:06.263Z,7.95
2022-11-22T12:55:23.217Z,7.97
2022-11-22T12:57:40.186Z,7.91
2022-11-22T12:59:57.384Z,7.91
2022-11-22T13:02:15.426Z,7.87
2022-11-22T13:04:33.052Z,7.86
2022-11-22T13:06:50.872Z,7.86
2022-11-22T13:09:08.856Z,7.92
2022-11-22T13:11:26.152Z,7.95
2022-11-22T13:13:43.510Z,7.95
2022-11-22T13:16:00.761Z,7.99
2022-11-22T13:18:18.731Z,8.06
2022-11-22T13:20:41.141Z,8.07
2022-11-22T13:23:00.202Z,8.11
2022-11-22T13:25:18.970Z,8.18
2022-11-22T13:27:36.275Z,8.11
2022-11-22T13:29:53.275Z,8.12
2022-11-22T13:32:10.702Z,8.20
2022-11-22T13:34:28.056Z,8.31
2022-11-22T13:36:45.345Z,8.36
2022-11-22T13:39:04.146Z,8.34
2022-11-22T13:41:21.478Z,8.31
2022-11-22T13:43:38.422Z,8.37
2022-11-22T13:45:55.416Z,8.30
2022-11-22T13:48:12.672Z,8.24
2022-11-22T13:50:29.889Z,8.21
2022-11-22T13:52:47.167Z,8.19
2022-11-22T13:55:04.167Z,8.14
2022-11-22T13:57:21.230Z,8.12
2022-11-22T13:59:38.244Z,8.10
2022-11-22T14:01:55.276Z,8.05
2022-11-22T14:04:12.576Z,8.07
2022-11-22T14:06:29.609Z,8.13
2022-11-22T14:08:46.509Z,8.11
2022-11-22T14:11:03.779Z,8.12
2022-11-22T14:13:20.820Z,8.05
2022-11-22T14:15:37.867Z,8.05
2022-11-22T14:17:55.090Z,7.99
2022-11-22T14:20:12.380Z,7.92
2022-11-22T14:22:30.606Z,7.88
2022-11-22T14:24:47.892Z,7.87
2022-11-22T14:27:04.864Z,7.88
2022-11-22T14:29:21.866Z,7.88
2022-11-22T14:31:38.974Z,7.90
2022-11-22T14:33:56.290Z,7.91
2022-11-22T14:36:14.294Z,7.92
2022-11-22T14:38:31.330Z,7.91
2022-11-22T14:40:48.288Z,7.85
2022-11-22T14:43:05.544Z,7.84
2022-11-22T14:45:23.600Z,7.80
2022-11-22T14:47:40.900Z,7.79
2022-11-22T14:49:57.914Z,7.69
2022-11-22T14:52:15.209Z,7.64
2022-11-22T14:54:32.225Z,7.61
2022-11-22T14:56:49.165Z,7.60
2022-11-22T14:59:06.482Z,7.65
2022-11-22T15:01:24.466Z,7.57
2022-11-22T15:03:41.516Z,7.55
2022-11-22T15:09:17.864Z,7.51
2022-11-22T15:09:21.958Z,7.53
2022-11-22T15:11:14.707Z,7.51
2022-11-22T15:13:31.996Z,7.57
2022-11-22T15:57:45.648Z,7.20
2022-11-22T16:00:03.063Z,7.21
2022-11-22T16:02:20.089Z,7.22
2022-11-22T16:04:37.323Z,7.21
2022-11-22T16:06:55.380Z,7.20
2022-11-22T16:09:12.597Z,7.18
2022-11-22T16:11:30.823Z,7.20
2022-11-22T16:13:48.123Z,7.20
2022-11-22T16:16:05.439Z,7.31
2022-11-22T16:18:22.750Z,7.28
2022-11-22T16:20:40.719Z,7.23
2022-11-22T16:22:57.966Z,7.21
2022-11-22T16:25:15.281Z,7.22
2022-11-22T16:27:32.582Z,7.22
2022-11-22T16:29:49.615Z,7.21
2022-11-22T16:32:06.603Z,7.18
2022-11-22T16:34:23.566Z,7.20
2022-11-22T16:36:40.618Z,7.17
2022-11-22T16:38:57.800Z,7.18
2022-11-22T16:41:15.152Z,7.18
2022-11-22T16:43:33.145Z,7.19
2022-11-22T16:45:50.169Z,7.19
2022-11-22T16:48:30.196Z,7.19
2022-11-22T16:50:46.926Z,7.19
2022-11-22T16:53:04.867Z,7.16
2022-11-22T16:55:22.092Z,7.14
2022-11-22T16:57:39.105Z,7.16
2022-11-22T16:59:56.418Z,7.14
2022-11-22T17:02:13.463Z,7.11
2022-11-22T17:04:30.492Z,7.11
2022-11-22T17:06:47.630Z,7.06
2022-11-22T17:09:04.991Z,7.08
2022-11-22T17:11:22.071Z,7.06
2022-11-22T17:13:40.123Z,7.04
2022-11-22T17:15:57.195Z,7.00
2022-11-22T17:18:14.076Z,7.01
2022-11-22T17:20:31.200Z,7.01
2022-11-22T17:22:48.471Z,7.00
2022-11-22T17:25:06.708Z,7.03
2022-11-22T17:27:24.074Z,7.04
2022-11-22T17:29:50.210Z,7.05
2022-11-22T17:32:09.169Z,7.05
2022-11-22T17:34:26.104Z,7.05
2022-11-22T17:36:43.983Z,7.05
2022-11-22T17:39:00.978Z,7.04
2022-11-22T17:41:17.957Z,7.03
2022-11-22T17:43:35.326Z,7.06
2022-11-22T17:45:52.432Z,7.06
2022-11-22T17:48:09.394Z,7.03
2022-11-22T17:50:26.383Z,7.04
2022-11-22T17:52:43.553Z,7.05
2022-11-22T17:55:05.235Z,7.07
2022-11-22T17:57:23.567Z,7.05
2022-11-22T17:59:40.600Z,7.07
2022-11-22T18:01:57.634Z,7.10
2022-11-22T18:04:14.945Z,7.08
2022-11-22T18:06:32.308Z,7.08
2022-11-22T18:08:49.212Z,7.08
2022-11-22T18:11:06.237Z,7.07
2022-11-22T18:13:23.429Z,7.05
2022-11-22T18:15:40.734Z,7.00
2022-11-22T18:17:58.053Z,7.00
2022-11-22T18:20:15.084Z,6.98
2022-11-22T18:22:32.128Z,6.91
2022-11-22T18:24:49.057Z,6.94
2022-11-22T18:27:07.108Z,6.91
2022-11-22T18:29:42.816Z,6.91
2022-11-22T18:32:00.408Z,6.90
2022-11-22T18:34:17.692Z,6.92
2022-11-22T18:36:54.597Z,6.86
2022-11-22T18:39:12.770Z,6.85
2022-11-22T18:41:29.761Z,6.84
2022-11-22T18:43:46.829Z,6.93
2022-11-22T18:46:05.017Z,6.90
2022-11-22T18:48:22.329Z,6.91
2022-11-22T18:50:39.608Z,6.90
2022-11-22T18:52:56.670Z,6.91
2022-11-22T18:55:13.986Z,6.92
2022-11-22T18:57:32.198Z,6.94
2022-11-22T18:59:49.423Z,6.94
2022-11-22T19:02:06.376Z,6.93
2022-11-22T19:04:24.344Z,6.95
2022-11-22T19:06:41.692Z,6.93
2022-11-22T19:08:58.888Z,6.95
2022-11-22T19:11:16.176Z,6.93
2022-11-22T19:13:33.447Z,6.87
2022-11-22T19:15:51.019Z,6.87
2022-11-22T19:18:08.336Z,6.85
2022-11-22T19:20:47.764Z,6.81
2022-11-22T19:23:02.382Z,6.78
2022-11-22T19:25:19.448Z,6.73
2022-11-22T19:27:36.502Z,6.79
2022-11-22T19:29:53.417Z,6.68
2022-11-22T19:32:10.401Z,6.66
2022-11-22T19:34:27.502Z,6.64
2022-11-22T19:36:45.045Z,6.61
2022-11-22T19:39:03.152Z,6.58
2022-11-22T19:41:20.401Z,6.50
2022-11-22T19:43:37.643Z,6.49
2022-11-22T19:45:54.830Z,6.43
2022-11-22T19:48:12.122Z,6.45
2022-11-22T19:50:29.426Z,6.45
2022-11-22T19:52:46.711Z,6.40
2022-11-22T19:55:04.131Z,6.38
2022-11-22T19:57:21.786Z,6.40
2022-11-22T19:59:39.123Z,6.36
2022-11-22T20:01:56.743Z,6.35
2022-11-22T20:04:13.791Z,6.35
2022-11-22T20:06:31.784Z,6.36
2022-11-22T20:08:49.866Z,6.40
2022-11-22T20:11:06.925Z,6.40
2022-11-22T20:13:24.158Z,6.41
2022-11-22T20:15:41.380Z,6.46
2022-11-22T20:17:59.209Z,6.50
2022-11-22T20:20:16.113Z,6.53
2022-11-22T20:22:33.083Z,6.56
2022-11-22T20:24:51.425Z,6.57
2022-11-22T20:27:08.718Z,6.63
2022-11-22T20:29:25.802Z,6.63
2022-11-22T20:31:42.773Z,6.60
2022-11-22T20:34:00.123Z,6.56
2022-11-22T20:36:17.118Z,6.57
2022-11-22T20:38:34.054Z,6.51
2022-11-22T20:40:51.302Z,6.63
2022-11-22T20:43:08.339Z,6.59
2022-11-22T20:45:25.639Z,6.59
2022-11-22T20:47:42.618Z,6.58
2022-11-22T20:49:59.583Z,6.56
2022-11-22T20:52:16.897Z,6.58
2022-11-22T20:54:34.124Z,6.61
2022-11-22T20:56:51.318Z,6.66
2022-11-22T20:59:08.397Z,6.67
2022-11-22T21:01:25.735Z,6.67
2022-11-22T21:03:42.753Z,6.66
2022-11-22T21:06:01.706Z,6.65
2022-11-22T21:08:19.013Z,6.70
2022-11-22T21:10:36.044Z,6.69
2022-11-22T21:12:53.038Z,6.72
2022-11-22T21:15:09.935Z,6.73
2022-11-22T21:17:45.552Z,6.74
2022-11-22T21:20:04.210Z,6.74
2022-11-22T21:22:21.497Z,6.76
2022-11-22T21:24:38.475Z,6.78
2022-11-22T21:26:56.396Z,6.76
2022-11-22T21:29:16.420Z,6.76
2022-11-22T21:31:35.244Z,6.79
2022-11-22T21:33:52.522Z,6.80
2022-11-22T21:36:09.493Z,6.79
2022-11-22T21:38:31.196Z,6.81
2022-11-22T21:40:48.437Z,6.82
2022-11-22T21:43:05.505Z,6.84
2022-11-22T21:45:22.719Z,6.84
2022-11-22T21:47:40.067Z,6.86
2022-11-22T21:49:57.080Z,6.88
2022-11-22T21:52:14.059Z,6.93
2022-11-22T21:54:31.181Z,6.95
2022-11-22T21:56:48.692Z,6.94
2022-11-22T21:59:06.649Z,6.99
2022-11-22T22:01:23.671Z,6.97
2022-11-22T22:03:40.762Z,6.99
2022-11-22T22:05:57.698Z,6.97
2022-11-22T22:08:14.712Z,7.00
2022-11-22T22:10:31.675Z,7.02
2022-11-22T22:12:48.662Z,7.01
2022-11-22T22:15:05.984Z,7.01
2022-11-22T22:17:25.136Z,7.01
2022-11-22T22:19:42.187Z,7.00
2022-11-22T22:21:59.605Z,7.01
2022-11-22T22:24:16.627Z,7.01
2022-11-22T22:26:33.607Z,7.00
2022-11-22T22:28:50.910Z,7.02
2022-11-22T22:31:07.905Z,7.00
2022-11-22T22:33:25.258Z,6.96
2022-11-22T22:35:42.512Z,6.98
2022-11-22T22:37:59.447Z,6.99
2022-11-22T22:40:16.349Z,7.02
2022-11-22T22:42:33.584Z,7.03
2022-11-22T22:44:50.551Z,7.01
2022-11-22T22:47:07.622Z,6.97
2022-11-22T22:49:24.871Z,6.96
2022-11-22T22:51:41.887Z,6.97
2022-11-22T22:53:59.896Z,6.99
2022-11-22T22:56:16.931Z,6.97
2022-11-22T22:58:33.965Z,7.00
2022-11-22T23:00:50.866Z,7.01
2022-11-22T23:03:07.987Z,6.99
2022-11-22T23:05:26.340Z,7.00
2022-11-22T23:07:44.096Z,7.00
2022-11-22T23:10:02.166Z,7.02
2022-11-22T23:12:19.487Z,7.01
2022-11-22T23:14:36.720Z,7.04
2022-11-22T23:16:57.728Z,7.04
2022-11-22T23:19:15.696Z,7.07
2022-11-22T23:21:32.940Z,7.05
2022-11-22T23:23:49.992Z,7.06
2022-11-22T23:26:08.026Z,7.04
2022-11-22T23:28:25.271Z,7.03
2022-11-22T23:30:42.339Z,7.04
2022-11-22T23:33:00.178Z,7.04
2022-11-22T23:35:17.281Z,7.07
2022-11-22T23:37:34.312Z,7.06
2022-11-22T23:39:51.379Z,7.05
2022-11-22T23:42:08.418Z,7.05
2022-11-22T23:44:25.548Z,7.07
2022-11-22T23:46:42.521Z,7.08
2022-11-22T23:48:59.433Z,7.08
2022-11-22T23:51:16.791Z,7.07
2022-11-22T23:53:34.028Z,7.08
2022-11-22T23:55:51.084Z,7.11
2022-11-22T23:58:08.130Z,7.09
